sensor_id;sensor_type;location;lat;lon;timestamp;P1;durP1;ratioP1;P2;durP2;ratioP2
35699;SDS011;21818;51.078;12.108;2023-09-08T00:01:49;17.30;;;4.15;;
35699;SDS011;21818;51.078;12.108;2023-09-08T00:04:14;6.22;;;3.47;;
35699;SDS011;21818;51.078;12.108;2023-09-08T00:06:40;7.63;;;3.63;;
35699;SDS011;21818;51.078;12.108;2023-09-08T00:09:06;13.30;;;5.70;;
35699;SDS011;21818;51.078;12.108;2023-09-08T00:11:33;6.32;;;3.65;;
35699;SDS011;21818;51.078;12.108;2023-09-08T00:13:58;12.60;;;4.07;;
35699;SDS011;21818;51.078;12.108;2023-09-08T00:16:24;8.10;;;4.10;;
35699;SDS011;21818;51.078;12.108;2023-09-08T00:18:50;6.75;;;4.05;;
35699;SDS011;21818;51.078;12.108;2023-09-08T00:21:15;6.82;;;4.57;;
35699;SDS011;21818;51.078;12.108;2023-09-08T00:23:41;7.18;;;4.30;;
35699;SDS011;21818;51.078;12.108;2023-09-08T00:26:06;6.93;;;3.92;;
35699;SDS011;21818;51.078;12.108;2023-09-08T00:28:32;7.38;;;3.78;;
35699;SDS011;21818;51.078;12.108;2023-09-08T00:30:58;5.65;;;3.58;;
35699;SDS011;21818;51.078;12.108;2023-09-08T00:33:25;10.30;;;4.50;;
35699;SDS011;21818;51.078;12.108;2023-09-08T00:35:51;8.48;;;4.25;;
35699;SDS011;21818;51.078;12.108;2023-09-08T00:38:18;6.47;;;4.15;;
35699;SDS011;21818;51.078;12.108;2023-09-08T00:40:44;11.55;;;4.15;;
35699;SDS011;21818;51.078;12.108;2023-09-08T00:43:10;9.60;;;4.03;;
35699;SDS011;21818;51.078;12.108;2023-09-08T00:45:40;7.07;;;4.32;;
35699;SDS011;21818;51.078;12.108;2023-09-08T00:48:08;6.70;;;3.95;;
35699;SDS011;21818;51.078;12.108;2023-09-08T00:50:35;6.78;;;3.60;;
35699;SDS011;21818;51.078;12.108;2023-09-08T00:53:02;7.40;;;4.55;;
35699;SDS011;21818;51.078;12.108;2023-09-08T00:55:29;6.90;;;3.97;;
35699;SDS011;21818;51.078;12.108;2023-09-08T00:57:55;9.77;;;4.55;;
35699;SDS011;21818;51.078;12.108;2023-09-08T01:00:21;9.32;;;3.60;;
35699;SDS011;21818;51.078;12.108;2023-09-08T01:02:46;8.18;;;4.15;;
35699;SDS011;21818;51.078;12.108;2023-09-08T01:05:13;11.38;;;5.28;;
35699;SDS011;21818;51.078;12.108;2023-09-08T01:07:39;7.70;;;3.70;;
35699;SDS011;21818;51.078;12.108;2023-09-08T01:10:05;11.18;;;4.30;;
35699;SDS011;21818;51.078;12.108;2023-09-08T01:12:32;8.13;;;4.10;;
35699;SDS011;21818;51.078;12.108;2023-09-08T01:14:59;7.13;;;3.83;;
35699;SDS011;21818;51.078;12.108;2023-09-08T01:17:26;5.55;;;4.03;;
35699;SDS011;21818;51.078;12.108;2023-09-08T01:19:52;8.13;;;4.25;;
35699;SDS011;21818;51.078;12.108;2023-09-08T01:25:19;5.80;;;3.30;;
35699;SDS011;21818;51.078;12.108;2023-09-08T01:27:50;11.18;;;4.53;;
35699;SDS011;21818;51.078;12.108;2023-09-08T01:30:18;6.05;;;4.15;;
35699;SDS011;21818;51.078;12.108;2023-09-08T01:32:46;7.72;;;3.78;;
35699;SDS011;21818;51.078;12.108;2023-09-08T01:35:12;6.22;;;4.25;;
35699;SDS011;21818;51.078;12.108;2023-09-08T01:37:42;7.90;;;3.85;;
35699;SDS011;21818;51.078;12.108;2023-09-08T01:40:10;6.72;;;4.13;;
35699;SDS011;21818;51.078;12.108;2023-09-08T01:42:37;8.85;;;3.83;;
35699;SDS011;21818;51.078;12.108;2023-09-08T01:45:03;6.88;;;4.32;;
35699;SDS011;21818;51.078;12.108;2023-09-08T01:47:29;7.50;;;4.07;;
35699;SDS011;21818;51.078;12.108;2023-09-08T01:49:55;6.93;;;4.45;;
35699;SDS011;21818;51.078;12.108;2023-09-08T01:52:20;7.35;;;4.03;;
35699;SDS011;21818;51.078;12.108;2023-09-08T01:54:46;7.53;;;3.55;;
35699;SDS011;21818;51.078;12.108;2023-09-08T01:57:11;8.02;;;4.30;;
35699;SDS011;21818;51.078;12.108;2023-09-08T01:59:37;6.40;;;4.00;;
35699;SDS011;21818;51.078;12.108;2023-09-08T02:02:03;7.25;;;4.00;;
35699;SDS011;21818;51.078;12.108;2023-09-08T02:04:29;7.18;;;4.65;;
35699;SDS011;21818;51.078;12.108;2023-09-08T02:06:54;6.32;;;4.22;;
35699;SDS011;21818;51.078;12.108;2023-09-08T02:09:20;6.80;;;4.45;;
35699;SDS011;21818;51.078;12.108;2023-09-08T02:11:46;9.10;;;4.57;;
35699;SDS011;21818;51.078;12.108;2023-09-08T02:14:11;6.68;;;4.40;;
35699;SDS011;21818;51.078;12.108;2023-09-08T02:16:37;9.73;;;3.95;;
35699;SDS011;21818;51.078;12.108;2023-09-08T02:19:03;4.80;;;3.40;;
35699;SDS011;21818;51.078;12.108;2023-09-08T02:21:28;8.15;;;4.53;;
35699;SDS011;21818;51.078;12.108;2023-09-08T02:23:54;5.43;;;3.90;;
35699;SDS011;21818;51.078;12.108;2023-09-08T02:26:19;5.60;;;3.67;;
35699;SDS011;21818;51.078;12.108;2023-09-08T02:28:45;6.90;;;4.28;;
35699;SDS011;21818;51.078;12.108;2023-09-08T02:31:10;7.50;;;4.38;;
35699;SDS011;21818;51.078;12.108;2023-09-08T02:33:37;6.95;;;3.85;;
35699;SDS011;21818;51.078;12.108;2023-09-08T02:36:03;8.57;;;3.80;;
35699;SDS011;21818;51.078;12.108;2023-09-08T02:38:30;5.50;;;3.15;;
35699;SDS011;21818;51.078;12.108;2023-09-08T02:40:56;7.25;;;3.60;;
35699;SDS011;21818;51.078;12.108;2023-09-08T02:43:21;7.45;;;3.55;;
35699;SDS011;21818;51.078;12.108;2023-09-08T02:45:47;5.15;;;3.63;;
35699;SDS011;21818;51.078;12.108;2023-09-08T02:48:12;6.93;;;3.67;;
35699;SDS011;21818;51.078;12.108;2023-09-08T02:50:38;8.30;;;3.60;;
35699;SDS011;21818;51.078;12.108;2023-09-08T02:53:03;7.47;;;3.80;;
35699;SDS011;21818;51.078;12.108;2023-09-08T02:55:30;9.45;;;5.13;;
35699;SDS011;21818;51.078;12.108;2023-09-08T02:57:55;11.48;;;4.75;;
35699;SDS011;21818;51.078;12.108;2023-09-08T03:00:21;8.82;;;4.65;;
35699;SDS011;21818;51.078;12.108;2023-09-08T03:02:47;12.02;;;5.03;;
35699;SDS011;21818;51.078;12.108;2023-09-08T03:05:13;12.50;;;5.57;;
35699;SDS011;21818;51.078;12.108;2023-09-08T03:07:38;10.40;;;5.32;;
35699;SDS011;21818;51.078;12.108;2023-09-08T03:10:04;9.93;;;5.20;;
35699;SDS011;21818;51.078;12.108;2023-09-08T03:12:31;12.85;;;5.63;;
35699;SDS011;21818;51.078;12.108;2023-09-08T03:14:56;14.07;;;5.78;;
35699;SDS011;21818;51.078;12.108;2023-09-08T03:17:22;12.00;;;6.32;;
35699;SDS011;21818;51.078;12.108;2023-09-08T03:19:47;15.32;;;5.22;;
35699;SDS011;21818;51.078;12.108;2023-09-08T03:22:13;12.60;;;5.38;;
35699;SDS011;21818;51.078;12.108;2023-09-08T03:24:38;13.05;;;6.20;;
35699;SDS011;21818;51.078;12.108;2023-09-08T03:27:04;11.25;;;5.30;;
35699;SDS011;21818;51.078;12.108;2023-09-08T03:29:30;11.35;;;4.70;;
35699;SDS011;21818;51.078;12.108;2023-09-08T03:31:55;14.93;;;6.00;;
35699;SDS011;21818;51.078;12.108;2023-09-08T03:34:21;11.40;;;5.70;;
35699;SDS011;21818;51.078;12.108;2023-09-08T03:36:47;12.98;;;5.95;;
35699;SDS011;21818;51.078;12.108;2023-09-08T03:39:13;9.20;;;5.50;;
35699;SDS011;21818;51.078;12.108;2023-09-08T03:41:39;10.40;;;5.35;;
35699;SDS011;21818;51.078;12.108;2023-09-08T03:44:04;10.10;;;5.70;;
35699;SDS011;21818;51.078;12.108;2023-09-08T03:46:30;12.45;;;5.43;;
35699;SDS011;21818;51.078;12.108;2023-09-08T03:48:56;11.00;;;5.97;;
35699;SDS011;21818;51.078;12.108;2023-09-08T03:51:25;12.52;;;5.45;;
35699;SDS011;21818;51.078;12.108;2023-09-08T03:53:51;13.18;;;5.28;;
35699;SDS011;21818;51.078;12.108;2023-09-08T03:56:17;13.05;;;5.55;;
35699;SDS011;21818;51.078;12.108;2023-09-08T03:58:43;10.02;;;5.22;;
35699;SDS011;21818;51.078;12.108;2023-09-08T04:01:08;10.63;;;5.25;;
35699;SDS011;21818;51.078;12.108;2023-09-08T04:03:34;15.43;;;5.63;;
35699;SDS011;21818;51.078;12.108;2023-09-08T04:05:59;13.50;;;4.80;;
35699;SDS011;21818;51.078;12.108;2023-09-08T04:08:25;7.68;;;5.20;;
35699;SDS011;21818;51.078;12.108;2023-09-08T04:10:50;11.20;;;5.20;;
35699;SDS011;21818;51.078;12.108;2023-09-08T04:13:16;14.02;;;5.45;;
35699;SDS011;21818;51.078;12.108;2023-09-08T04:15:41;10.65;;;5.18;;
35699;SDS011;21818;51.078;12.108;2023-09-08T04:18:07;9.40;;;5.80;;
35699;SDS011;21818;51.078;12.108;2023-09-08T04:20:33;15.60;;;5.43;;
35699;SDS011;21818;51.078;12.108;2023-09-08T04:22:58;9.95;;;5.05;;
35699;SDS011;21818;51.078;12.108;2023-09-08T04:25:24;11.98;;;5.32;;
35699;SDS011;21818;51.078;12.108;2023-09-08T04:27:50;12.70;;;6.15;;
35699;SDS011;21818;51.078;12.108;2023-09-08T04:30:15;13.15;;;5.97;;
35699;SDS011;21818;51.078;12.108;2023-09-08T04:32:42;10.43;;;5.80;;
35699;SDS011;21818;51.078;12.108;2023-09-08T04:35:08;11.75;;;6.10;;
35699;SDS011;21818;51.078;12.108;2023-09-08T04:37:34;12.85;;;6.10;;
35699;SDS011;21818;51.078;12.108;2023-09-08T04:40:01;11.77;;;5.50;;
35699;SDS011;21818;51.078;12.108;2023-09-08T04:42:27;8.65;;;5.55;;
35699;SDS011;21818;51.078;12.108;2023-09-08T04:44:54;12.35;;;5.53;;
35699;SDS011;21818;51.078;12.108;2023-09-08T04:47:19;16.52;;;6.25;;
35699;SDS011;21818;51.078;12.108;2023-09-08T04:49:45;14.27;;;6.50;;
35699;SDS011;21818;51.078;12.108;2023-09-08T04:52:11;10.45;;;6.05;;
35699;SDS011;21818;51.078;12.108;2023-09-08T04:54:37;11.13;;;5.72;;
35699;SDS011;21818;51.078;12.108;2023-09-08T04:57:02;12.40;;;5.85;;
35699;SDS011;21818;51.078;12.108;2023-09-08T04:59:28;13.00;;;5.70;;
35699;SDS011;21818;51.078;12.108;2023-09-08T05:01:54;10.52;;;5.32;;
35699;SDS011;21818;51.078;12.108;2023-09-08T05:04:19;10.05;;;5.78;;
35699;SDS011;21818;51.078;12.108;2023-09-08T05:06:45;9.13;;;5.82;;
35699;SDS011;21818;51.078;12.108;2023-09-08T05:09:11;12.32;;;5.20;;
35699;SDS011;21818;51.078;12.108;2023-09-08T05:11:37;10.02;;;5.88;;
35699;SDS011;21818;51.078;12.108;2023-09-08T05:14:02;12.00;;;5.88;;
35699;SDS011;21818;51.078;12.108;2023-09-08T05:16:28;12.43;;;6.03;;
35699;SDS011;21818;51.078;12.108;2023-09-08T05:19:10;11.75;;;4.65;;
35699;SDS011;21818;51.078;12.108;2023-09-08T05:21:36;10.93;;;5.70;;
35699;SDS011;21818;51.078;12.108;2023-09-08T05:24:02;11.00;;;5.13;;
35699;SDS011;21818;51.078;12.108;2023-09-08T05:26:28;10.05;;;5.20;;
35699;SDS011;21818;51.078;12.108;2023-09-08T05:28:53;14.30;;;5.75;;
35699;SDS011;21818;51.078;12.108;2023-09-08T05:31:19;11.73;;;5.10;;
35699;SDS011;21818;51.078;12.108;2023-09-08T05:33:45;16.50;;;5.55;;
35699;SDS011;21818;51.078;12.108;2023-09-08T05:36:10;27.52;;;6.47;;
35699;SDS011;21818;51.078;12.108;2023-09-08T05:38:36;34.83;;;6.25;;
35699;SDS011;21818;51.078;12.108;2023-09-08T05:41:02;25.52;;;7.25;;
35699;SDS011;21818;51.078;12.108;2023-09-08T05:43:27;20.80;;;5.45;;
35699;SDS011;21818;51.078;12.108;2023-09-08T05:45:53;22.95;;;6.32;;
35699;SDS011;21818;51.078;12.108;2023-09-08T05:48:19;19.17;;;5.55;;
35699;SDS011;21818;51.078;12.108;2023-09-08T05:50:44;23.15;;;5.20;;
35699;SDS011;21818;51.078;12.108;2023-09-08T05:53:10;17.63;;;5.05;;
35699;SDS011;21818;51.078;12.108;2023-09-08T05:55:36;20.02;;;5.57;;
35699;SDS011;21818;51.078;12.108;2023-09-08T05:58:01;25.50;;;5.93;;
35699;SDS011;21818;51.078;12.108;2023-09-08T06:00:27;18.55;;;5.70;;
35699;SDS011;21818;51.078;12.108;2023-09-08T06:02:53;14.77;;;4.93;;
35699;SDS011;21818;51.078;12.108;2023-09-08T06:05:18;15.55;;;5.07;;
35699;SDS011;21818;51.078;12.108;2023-09-08T06:07:44;21.42;;;5.00;;
35699;SDS011;21818;51.078;12.108;2023-09-08T06:10:09;18.15;;;4.68;;
35699;SDS011;21818;51.078;12.108;2023-09-08T06:12:35;18.35;;;6.30;;
35699;SDS011;21818;51.078;12.108;2023-09-08T06:15:04;17.38;;;5.03;;
35699;SDS011;21818;51.078;12.108;2023-09-08T06:17:31;12.30;;;4.30;;
35699;SDS011;21818;51.078;12.108;2023-09-08T06:19:57;17.02;;;5.28;;
35699;SDS011;21818;51.078;12.108;2023-09-08T06:22:22;16.63;;;4.65;;
35699;SDS011;21818;51.078;12.108;2023-09-08T06:24:48;13.48;;;5.20;;
35699;SDS011;21818;51.078;12.108;2023-09-08T06:27:14;12.05;;;5.10;;
35699;SDS011;21818;51.078;12.108;2023-09-08T06:29:40;17.13;;;5.18;;
35699;SDS011;21818;51.078;12.108;2023-09-08T06:32:08;13.70;;;4.72;;
35699;SDS011;21818;51.078;12.108;2023-09-08T06:34:34;12.90;;;4.40;;
35699;SDS011;21818;51.078;12.108;2023-09-08T06:37:00;11.20;;;4.38;;
35699;SDS011;21818;51.078;12.108;2023-09-08T06:39:27;13.27;;;4.43;;
35699;SDS011;21818;51.078;12.108;2023-09-08T06:41:52;18.85;;;5.22;;
35699;SDS011;21818;51.078;12.108;2023-09-08T06:44:19;10.75;;;4.85;;
35699;SDS011;21818;51.078;12.108;2023-09-08T06:46:48;17.02;;;5.03;;
35699;SDS011;21818;51.078;12.108;2023-09-08T06:49:13;13.82;;;5.18;;
35699;SDS011;21818;51.078;12.108;2023-09-08T06:51:39;12.88;;;4.72;;
35699;SDS011;21818;51.078;12.108;2023-09-08T06:54:05;11.45;;;4.10;;
35699;SDS011;21818;51.078;12.108;2023-09-08T06:56:30;9.68;;;4.47;;
35699;SDS011;21818;51.078;12.108;2023-09-08T06:58:56;16.65;;;4.53;;
35699;SDS011;21818;51.078;12.108;2023-09-08T07:01:25;15.45;;;4.15;;
35699;SDS011;21818;51.078;12.108;2023-09-08T07:03:50;12.48;;;4.75;;
35699;SDS011;21818;51.078;12.108;2023-09-08T07:06:16;13.90;;;5.13;;
35699;SDS011;21818;51.078;12.108;2023-09-08T07:08:42;10.35;;;4.40;;
35699;SDS011;21818;51.078;12.108;2023-09-08T07:11:07;14.05;;;4.50;;
35699;SDS011;21818;51.078;12.108;2023-09-08T07:13:33;15.48;;;5.38;;
35699;SDS011;21818;51.078;12.108;2023-09-08T07:15:59;11.75;;;4.43;;
35699;SDS011;21818;51.078;12.108;2023-09-08T07:18:25;10.02;;;4.68;;
35699;SDS011;21818;51.078;12.108;2023-09-08T07:20:51;12.63;;;5.28;;
35699;SDS011;21818;51.078;12.108;2023-09-08T07:23:16;10.90;;;4.15;;
35699;SDS011;21818;51.078;12.108;2023-09-08T07:25:48;12.85;;;4.78;;
35699;SDS011;21818;51.078;12.108;2023-09-08T07:28:15;8.45;;;3.70;;
35699;SDS011;21818;51.078;12.108;2023-09-08T07:30:41;11.15;;;4.05;;
35699;SDS011;21818;51.078;12.108;2023-09-08T07:33:07;9.85;;;4.57;;
35699;SDS011;21818;51.078;12.108;2023-09-08T07:35:35;12.85;;;4.63;;
35699;SDS011;21818;51.078;12.108;2023-09-08T07:38:02;12.60;;;3.92;;
35699;SDS011;21818;51.078;12.108;2023-09-08T07:40:28;12.15;;;4.72;;
35699;SDS011;21818;51.078;12.108;2023-09-08T07:42:53;10.88;;;4.47;;
35699;SDS011;21818;51.078;12.108;2023-09-08T07:45:19;10.60;;;4.78;;
35699;SDS011;21818;51.078;12.108;2023-09-08T07:47:44;14.43;;;4.57;;
35699;SDS011;21818;51.078;12.108;2023-09-08T07:50:23;11.57;;;4.38;;
35699;SDS011;21818;51.078;12.108;2023-09-08T07:52:51;8.52;;;3.65;;
35699;SDS011;21818;51.078;12.108;2023-09-08T07:55:17;10.35;;;4.18;;
35699;SDS011;21818;51.078;12.108;2023-09-08T07:57:44;10.60;;;4.30;;
35699;SDS011;21818;51.078;12.108;2023-09-08T08:00:13;14.07;;;5.22;;
35699;SDS011;21818;51.078;12.108;2023-09-08T08:02:41;14.30;;;4.85;;
35699;SDS011;21818;51.078;12.108;2023-09-08T08:05:09;10.30;;;4.43;;
35699;SDS011;21818;51.078;12.108;2023-09-08T08:07:35;9.32;;;4.03;;
35699;SDS011;21818;51.078;12.108;2023-09-08T08:10:00;11.43;;;4.30;;
35699;SDS011;21818;51.078;12.108;2023-09-08T08:12:26;8.15;;;3.38;;
35699;SDS011;21818;51.078;12.108;2023-09-08T08:14:52;12.05;;;4.03;;
35699;SDS011;21818;51.078;12.108;2023-09-08T08:17:18;11.55;;;4.13;;
35699;SDS011;21818;51.078;12.108;2023-09-08T08:19:44;9.82;;;3.83;;
35699;SDS011;21818;51.078;12.108;2023-09-08T08:22:10;9.27;;;4.18;;
35699;SDS011;21818;51.078;12.108;2023-09-08T08:24:36;11.25;;;4.40;;
35699;SDS011;21818;51.078;12.108;2023-09-08T08:27:01;10.15;;;4.38;;
35699;SDS011;21818;51.078;12.108;2023-09-08T08:29:28;8.30;;;4.18;;
35699;SDS011;21818;51.078;12.108;2023-09-08T08:31:53;12.82;;;4.57;;
35699;SDS011;21818;51.078;12.108;2023-09-08T08:34:19;11.45;;;4.05;;
35699;SDS011;21818;51.078;12.108;2023-09-08T08:36:45;9.25;;;3.92;;
35699;SDS011;21818;51.078;12.108;2023-09-08T08:39:10;9.80;;;4.20;;
35699;SDS011;21818;51.078;12.108;2023-09-08T08:41:36;13.50;;;4.03;;
35699;SDS011;21818;51.078;12.108;2023-09-08T08:44:05;10.43;;;3.65;;
35699;SDS011;21818;51.078;12.108;2023-09-08T08:46:33;11.55;;;4.95;;
35699;SDS011;21818;51.078;12.108;2023-09-08T08:49:01;10.38;;;3.97;;
35699;SDS011;21818;51.078;12.108;2023-09-08T08:51:28;8.73;;;3.90;;
35699;SDS011;21818;51.078;12.108;2023-09-08T08:53:55;11.52;;;3.97;;
35699;SDS011;21818;51.078;12.108;2023-09-08T08:56:22;10.20;;;4.05;;
35699;SDS011;21818;51.078;12.108;2023-09-08T08:58:48;12.35;;;4.30;;
35699;SDS011;21818;51.078;12.108;2023-09-08T09:01:18;8.57;;;4.40;;
35699;SDS011;21818;51.078;12.108;2023-09-08T09:03:46;10.05;;;3.92;;
35699;SDS011;21818;51.078;12.108;2023-09-08T09:06:15;12.27;;;4.60;;
35699;SDS011;21818;51.078;12.108;2023-09-08T09:08:44;9.23;;;3.70;;
35699;SDS011;21818;51.078;12.108;2023-09-08T09:11:11;9.23;;;3.77;;
35699;SDS011;21818;51.078;12.108;2023-09-08T09:13:37;8.98;;;3.63;;
35699;SDS011;21818;51.078;12.108;2023-09-08T09:16:02;11.63;;;4.18;;
35699;SDS011;21818;51.078;12.108;2023-09-08T09:18:31;8.27;;;3.33;;
35699;SDS011;21818;51.078;12.108;2023-09-08T09:20:58;9.20;;;4.38;;
35699;SDS011;21818;51.078;12.108;2023-09-08T09:23:28;8.02;;;3.03;;
35699;SDS011;21818;51.078;12.108;2023-09-08T09:25:55;10.02;;;4.00;;
35699;SDS011;21818;51.078;12.108;2023-09-08T09:28:22;10.32;;;3.95;;
35699;SDS011;21818;51.078;12.108;2023-09-08T09:30:48;9.10;;;4.40;;
35699;SDS011;21818;51.078;12.108;2023-09-08T09:33:16;10.05;;;4.00;;
35699;SDS011;21818;51.078;12.108;2023-09-08T09:35:46;9.68;;;4.30;;
35699;SDS011;21818;51.078;12.108;2023-09-08T09:38:16;7.50;;;4.00;;
35699;SDS011;21818;51.078;12.108;2023-09-08T09:40:44;8.40;;;3.92;;
35699;SDS011;21818;51.078;12.108;2023-09-08T09:43:13;8.52;;;3.38;;
35699;SDS011;21818;51.078;12.108;2023-09-08T09:45:41;8.02;;;3.85;;
35699;SDS011;21818;51.078;12.108;2023-09-08T09:48:08;8.45;;;3.75;;
35699;SDS011;21818;51.078;12.108;2023-09-08T09:50:36;8.27;;;3.97;;
35699;SDS011;21818;51.078;12.108;2023-09-08T09:53:14;8.30;;;3.08;;
35699;SDS011;21818;51.078;12.108;2023-09-08T09:55:41;6.90;;;3.75;;
35699;SDS011;21818;51.078;12.108;2023-09-08T09:58:08;8.23;;;3.38;;
35699;SDS011;21818;51.078;12.108;2023-09-08T10:00:35;8.80;;;4.15;;
35699;SDS011;21818;51.078;12.108;2023-09-08T10:03:02;8.93;;;3.58;;
35699;SDS011;21818;51.078;12.108;2023-09-08T10:05:29;8.68;;;3.83;;
35699;SDS011;21818;51.078;12.108;2023-09-08T10:07:55;9.00;;;3.58;;
35699;SDS011;21818;51.078;12.108;2023-09-08T10:10:21;11.40;;;3.55;;
35699;SDS011;21818;51.078;12.108;2023-09-08T10:12:52;10.15;;;4.10;;
35699;SDS011;21818;51.078;12.108;2023-09-08T10:17:52;6.80;;;3.63;;
35699;SDS011;21818;51.078;12.108;2023-09-08T10:20:19;8.07;;;3.33;;
35699;SDS011;21818;51.078;12.108;2023-09-08T10:23:21;8.20;;;3.75;;
35699;SDS011;21818;51.078;12.108;2023-09-08T10:25:45;8.82;;;3.55;;
35699;SDS011;21818;51.078;12.108;2023-09-08T10:28:18;9.52;;;3.33;;
35699;SDS011;21818;51.078;12.108;2023-09-08T10:30:44;7.05;;;3.60;;
35699;SDS011;21818;51.078;12.108;2023-09-08T10:33:11;11.35;;;3.58;;
35699;SDS011;21818;51.078;12.108;2023-09-08T10:35:37;8.90;;;3.95;;
35699;SDS011;21818;51.078;12.108;2023-09-08T10:40:51;6.18;;;3.40;;
35699;SDS011;21818;51.078;12.108;2023-09-08T10:43:18;10.32;;;3.60;;
35699;SDS011;21818;51.078;12.108;2023-09-08T10:45:45;6.50;;;3.28;;
35699;SDS011;21818;51.078;12.108;2023-09-08T10:48:11;7.95;;;3.13;;
35699;SDS011;21818;51.078;12.108;2023-09-08T10:50:39;7.68;;;3.90;;
35699;SDS011;21818;51.078;12.108;2023-09-08T10:53:18;9.13;;;3.20;;
35699;SDS011;21818;51.078;12.108;2023-09-08T10:55:47;13.85;;;3.78;;
35699;SDS011;21818;51.078;12.108;2023-09-08T10:58:29;6.13;;;3.20;;
35699;SDS011;21818;51.078;12.108;2023-09-08T11:00:58;7.43;;;3.55;;
35699;SDS011;21818;51.078;12.108;2023-09-08T11:03:47;9.60;;;4.00;;
35699;SDS011;21818;51.078;12.108;2023-09-08T11:06:18;7.10;;;3.08;;
35699;SDS011;21818;51.078;12.108;2023-09-08T11:08:47;6.35;;;3.08;;
35699;SDS011;21818;51.078;12.108;2023-09-08T11:11:14;8.95;;;3.35;;
35699;SDS011;21818;51.078;12.108;2023-09-08T11:13:41;8.20;;;3.50;;
35699;SDS011;21818;51.078;12.108;2023-09-08T11:16:07;8.40;;;3.40;;
35699;SDS011;21818;51.078;12.108;2023-09-08T11:18:33;8.45;;;4.13;;
35699;SDS011;21818;51.078;12.108;2023-09-08T11:21:00;10.65;;;3.70;;
35699;SDS011;21818;51.078;12.108;2023-09-08T11:23:27;7.75;;;3.42;;
35699;SDS011;21818;51.078;12.108;2023-09-08T11:25:53;9.15;;;3.80;;
35699;SDS011;21818;51.078;12.108;2023-09-08T11:28:21;6.40;;;2.90;;
35699;SDS011;21818;51.078;12.108;2023-09-08T11:30:49;9.18;;;3.65;;
35699;SDS011;21818;51.078;12.108;2023-09-08T11:33:18;9.10;;;3.83;;
35699;SDS011;21818;51.078;12.108;2023-09-08T11:35:47;5.38;;;3.22;;
35699;SDS011;21818;51.078;12.108;2023-09-08T11:38:13;5.38;;;2.78;;
35699;SDS011;21818;51.078;12.108;2023-09-08T11:40:39;6.13;;;3.63;;
35699;SDS011;21818;51.078;12.108;2023-09-08T11:43:06;7.03;;;2.92;;
35699;SDS011;21818;51.078;12.108;2023-09-08T11:45:35;7.10;;;3.20;;
35699;SDS011;21818;51.078;12.108;2023-09-08T11:48:02;5.75;;;2.85;;
35699;SDS011;21818;51.078;12.108;2023-09-08T11:50:29;6.15;;;3.30;;
35699;SDS011;21818;51.078;12.108;2023-09-08T11:52:56;7.22;;;3.35;;
35699;SDS011;21818;51.078;12.108;2023-09-08T11:55:24;5.90;;;3.22;;
35699;SDS011;21818;51.078;12.108;2023-09-08T11:57:52;7.18;;;3.17;;
35699;SDS011;21818;51.078;12.108;2023-09-08T12:00:26;7.80;;;3.33;;
35699;SDS011;21818;51.078;12.108;2023-09-08T12:02:53;7.07;;;2.92;;
35699;SDS011;21818;51.078;12.108;2023-09-08T12:05:23;8.48;;;3.15;;
35699;SDS011;21818;51.078;12.108;2023-09-08T12:07:50;10.55;;;3.13;;
35699;SDS011;21818;51.078;12.108;2023-09-08T12:10:17;8.13;;;3.20;;
35699;SDS011;21818;51.078;12.108;2023-09-08T12:12:44;8.68;;;3.28;;
35699;SDS011;21818;51.078;12.108;2023-09-08T12:15:11;8.82;;;3.80;;
35699;SDS011;21818;51.078;12.108;2023-09-08T12:17:49;6.97;;;2.92;;
35699;SDS011;21818;51.078;12.108;2023-09-08T12:20:15;8.35;;;3.17;;
35699;SDS011;21818;51.078;12.108;2023-09-08T12:22:48;6.88;;;3.40;;
35699;SDS011;21818;51.078;12.108;2023-09-08T12:25:17;9.75;;;3.10;;
35699;SDS011;21818;51.078;12.108;2023-09-08T12:27:44;6.68;;;3.30;;
35699;SDS011;21818;51.078;12.108;2023-09-08T12:30:16;7.95;;;3.47;;
35699;SDS011;21818;51.078;12.108;2023-09-08T12:32:47;7.13;;;3.15;;
35699;SDS011;21818;51.078;12.108;2023-09-08T12:35:19;5.22;;;3.08;;
35699;SDS011;21818;51.078;12.108;2023-09-08T12:37:52;7.35;;;3.50;;
35699;SDS011;21818;51.078;12.108;2023-09-08T12:40:21;5.10;;;2.85;;
35699;SDS011;21818;51.078;12.108;2023-09-08T12:42:47;7.07;;;3.13;;
35699;SDS011;21818;51.078;12.108;2023-09-08T12:45:13;7.22;;;3.33;;
35699;SDS011;21818;51.078;12.108;2023-09-08T12:47:39;6.55;;;3.55;;
35699;SDS011;21818;51.078;12.108;2023-09-08T12:50:04;5.70;;;2.78;;
35699;SDS011;21818;51.078;12.108;2023-09-08T12:52:30;6.68;;;3.03;;
35699;SDS011;21818;51.078;12.108;2023-09-08T12:54:57;7.20;;;3.10;;
35699;SDS011;21818;51.078;12.108;2023-09-08T12:57:22;5.88;;;2.80;;
35699;SDS011;21818;51.078;12.108;2023-09-08T12:59:48;7.93;;;3.97;;
35699;SDS011;21818;51.078;12.108;2023-09-08T13:02:16;5.20;;;2.83;;
35699;SDS011;21818;51.078;12.108;2023-09-08T13:04:41;6.18;;;3.17;;
35699;SDS011;21818;51.078;12.108;2023-09-08T13:07:09;6.38;;;3.17;;
35699;SDS011;21818;51.078;12.108;2023-09-08T13:09:34;9.25;;;4.18;;
35699;SDS011;21818;51.078;12.108;2023-09-08T13:12:00;6.55;;;3.55;;
35699;SDS011;21818;51.078;12.108;2023-09-08T13:14:25;6.13;;;3.35;;
35699;SDS011;21818;51.078;12.108;2023-09-08T13:16:51;8.23;;;3.20;;
35699;SDS011;21818;51.078;12.108;2023-09-08T13:19:17;7.93;;;3.10;;
35699;SDS011;21818;51.078;12.108;2023-09-08T13:21:42;7.15;;;3.42;;
35699;SDS011;21818;51.078;12.108;2023-09-08T13:24:08;5.82;;;3.10;;
35699;SDS011;21818;51.078;12.108;2023-09-08T13:26:34;5.95;;;2.83;;
35699;SDS011;21818;51.078;12.108;2023-09-08T13:28:59;6.22;;;3.28;;
35699;SDS011;21818;51.078;12.108;2023-09-08T13:31:25;4.30;;;2.60;;
35699;SDS011;21818;51.078;12.108;2023-09-08T13:33:50;7.25;;;2.85;;
35699;SDS011;21818;51.078;12.108;2023-09-08T13:36:16;7.25;;;3.00;;
35699;SDS011;21818;51.078;12.108;2023-09-08T13:38:41;6.93;;;3.10;;
35699;SDS011;21818;51.078;12.108;2023-09-08T13:41:07;6.45;;;3.05;;
35699;SDS011;21818;51.078;12.108;2023-09-08T13:43:32;6.88;;;3.15;;
35699;SDS011;21818;51.078;12.108;2023-09-08T13:45:58;7.25;;;3.00;;
35699;SDS011;21818;51.078;12.108;2023-09-08T13:48:24;8.80;;;3.08;;
35699;SDS011;21818;51.078;12.108;2023-09-08T13:50:49;7.25;;;2.67;;
35699;SDS011;21818;51.078;12.108;2023-09-08T13:53:15;5.28;;;2.88;;
35699;SDS011;21818;51.078;12.108;2023-09-08T13:55:41;6.68;;;2.75;;
35699;SDS011;21818;51.078;12.108;2023-09-08T13:58:06;6.07;;;3.17;;
35699;SDS011;21818;51.078;12.108;2023-09-08T14:00:32;5.38;;;2.75;;
35699;SDS011;21818;51.078;12.108;2023-09-08T14:02:57;4.75;;;3.10;;
35699;SDS011;21818;51.078;12.108;2023-09-08T14:05:23;5.72;;;3.10;;
35699;SDS011;21818;51.078;12.108;2023-09-08T14:07:48;6.32;;;2.92;;
35699;SDS011;21818;51.078;12.108;2023-09-08T14:10:14;6.53;;;3.00;;
35699;SDS011;21818;51.078;12.108;2023-09-08T14:12:40;5.78;;;2.55;;
35699;SDS011;21818;51.078;12.108;2023-09-08T14:15:05;5.85;;;2.72;;
35699;SDS011;21818;51.078;12.108;2023-09-08T14:17:32;5.28;;;2.63;;
35699;SDS011;21818;51.078;12.108;2023-09-08T14:19:58;4.60;;;2.85;;
35699;SDS011;21818;51.078;12.108;2023-09-08T14:22:23;6.38;;;3.17;;
35699;SDS011;21818;51.078;12.108;2023-09-08T14:24:49;5.82;;;2.88;;
35699;SDS011;21818;51.078;12.108;2023-09-08T14:27:15;7.00;;;3.28;;
35699;SDS011;21818;51.078;12.108;2023-09-08T14:29:40;4.38;;;2.58;;
35699;SDS011;21818;51.078;12.108;2023-09-08T14:32:06;5.50;;;2.30;;
35699;SDS011;21818;51.078;12.108;2023-09-08T14:34:31;5.43;;;3.20;;